createdAt,value
2018-07-31T00:00:19.053Z,23.90
2018-07-31T00:01:19.041Z,23.83
2018-07-31T00:02:19.032Z,23.75
2018-07-31T00:03:19.023Z,23.66
2018-07-31T00:04:19.010Z,23.70
2018-07-31T00:05:19.001Z,23.72
2018-07-31T00:06:18.991Z,23.65
2018-07-31T00:07:18.980Z,23.66
2018-07-31T00:08:18.972Z,23.57
2018-07-31T00:09:18.961Z,23.51
2018-07-31T00:10:18.955Z,23.46
2018-07-31T00:11:18.944Z,23.48
2018-07-31T00:12:18.931Z,23.48
2018-07-31T00:13:18.921Z,23.38
2018-07-31T00:14:18.912Z,23.39
2018-07-31T00:15:18.901Z,23.35
2018-07-31T00:16:18.893Z,23.36
2018-07-31T00:17:18.883Z,23.36
2018-07-31T00:18:18.868Z,23.32
2018-07-31T00:19:18.859Z,23.32
2018-07-31T00:20:18.870Z,23.27
2018-07-31T00:21:18.837Z,23.20
2018-07-31T00:22:18.830Z,23.20
2018-07-31T00:23:18.820Z,23.13
2018-07-31T00:24:18.808Z,23.22
2018-07-31T00:25:18.800Z,23.15
2018-07-31T00:26:18.786Z,23.10
2018-07-31T00:27:18.777Z,23.00
2018-07-31T00:28:18.765Z,23.16
2018-07-31T00:29:18.754Z,23.16
2018-07-31T00:30:18.747Z,23.09
2018-07-31T00:31:18.745Z,23.12
2018-07-31T00:32:18.726Z,23.19
2018-07-31T00:33:18.715Z,23.10
2018-07-31T00:34:18.705Z,23.12
2018-07-31T00:35:18.693Z,23.01
2018-07-31T00:36:18.686Z,23.04
2018-07-31T00:37:18.673Z,22.94
2018-07-31T00:38:18.662Z,22.94
2018-07-31T00:39:18.653Z,22.82
2018-07-31T00:40:18.642Z,22.80
2018-07-31T00:41:18.635Z,22.82
2018-07-31T00:42:18.622Z,22.80
2018-07-31T00:43:18.611Z,22.80
2018-07-31T00:44:18.602Z,22.80
2018-07-31T00:45:18.589Z,22.85
2018-07-31T00:46:18.584Z,22.75
2018-07-31T00:47:18.569Z,22.82
2018-07-31T00:48:18.559Z,22.75
2018-07-31T00:49:18.553Z,22.80
2018-07-31T00:50:18.536Z,22.77
2018-07-31T00:51:18.528Z,22.68
2018-07-31T00:52:18.519Z,22.65
2018-07-31T00:53:18.505Z,22.52
2018-07-31T00:54:18.495Z,22.45
2018-07-31T00:55:18.487Z,22.37
2018-07-31T00:56:18.475Z,22.36
2018-07-31T00:57:18.463Z,22.45
2018-07-31T00:58:18.453Z,22.33
2018-07-31T00:59:18.443Z,22.35
2018-07-31T01:00:18.432Z,22.40
2018-07-31T01:01:18.420Z,22.51
2018-07-31T01:02:18.410Z,22.51
2018-07-31T01:03:18.401Z,22.52
2018-07-31T01:04:18.439Z,22.60
2018-07-31T01:05:18.380Z,22.58
2018-07-31T01:06:18.367Z,22.55
2018-07-31T01:07:18.357Z,22.62
2018-07-31T01:08:18.346Z,22.70
2018-07-31T01:09:18.336Z,22.65
2018-07-31T01:10:18.331Z,22.61
2018-07-31T01:11:18.313Z,22.55
2018-07-31T01:12:18.304Z,22.51
2018-07-31T01:13:18.291Z,22.52
2018-07-31T01:14:18.289Z,22.60
2018-07-31T01:15:18.286Z,22.54
2018-07-31T01:16:18.260Z,22.49
2018-07-31T01:17:18.247Z,22.45
2018-07-31T01:18:18.237Z,22.46
2018-07-31T01:19:18.226Z,22.43
2018-07-31T01:20:18.217Z,22.47
2018-07-31T01:21:18.204Z,22.46
2018-07-31T01:22:18.195Z,22.46
2018-07-31T01:23:18.183Z,22.39
2018-07-31T01:24:18.173Z,22.35
2018-07-31T01:25:18.162Z,22.36
2018-07-31T01:26:18.151Z,22.30
2018-07-31T01:27:18.143Z,22.36
2018-07-31T01:28:18.133Z,22.49
2018-07-31T01:29:18.118Z,22.47
2018-07-31T01:30:18.107Z,22.47
2018-07-31T01:31:18.097Z,22.45
2018-07-31T01:32:18.088Z,22.37
2018-07-31T01:33:18.073Z,22.28
2018-07-31T01:34:18.067Z,22.25
2018-07-31T01:35:18.057Z,22.35
2018-07-31T01:36:18.040Z,22.27
2018-07-31T01:37:18.030Z,22.22
2018-07-31T01:38:18.021Z,22.30
2018-07-31T01:39:18.007Z,22.30
2018-07-31T01:40:17.999Z,22.24
2018-07-31T01:41:17.985Z,22.28
2018-07-31T01:42:17.976Z,22.21
2018-07-31T01:43:17.965Z,22.18
2018-07-31T01:44:17.955Z,22.06
2018-07-31T01:45:17.940Z,22.18
2018-07-31T01:46:17.934Z,22.15
2018-07-31T01:47:17.920Z,22.02
2018-07-31T01:48:17.909Z,22.15
2018-07-31T01:49:17.901Z,22.14
2018-07-31T01:50:17.887Z,22.05
2018-07-31T01:51:17.875Z,22.03
2018-07-31T01:52:17.866Z,21.98
2018-07-31T01:53:17.862Z,21.92
2018-07-31T01:54:17.841Z,21.91
2018-07-31T01:55:17.838Z,21.91
2018-07-31T01:56:17.825Z,21.94
2018-07-31T01:57:17.809Z,21.88
2018-07-31T01:58:17.797Z,21.83
2018-07-31T01:59:17.787Z,21.88
2018-07-31T02:00:17.774Z,21.83
2018-07-31T02:01:17.764Z,21.79
2018-07-31T02:02:17.763Z,21.83
2018-07-31T02:03:17.747Z,21.83
2018-07-31T02:04:17.733Z,21.79
2018-07-31T02:05:17.724Z,21.77
2018-07-31T02:06:17.829Z,21.77
2018-07-31T02:07:17.698Z,21.79
2018-07-31T02:08:17.685Z,21.86
2018-07-31T02:09:17.702Z,21.86
2018-07-31T02:10:17.664Z,21.84
2018-07-31T02:11:17.653Z,21.72
2018-07-31T02:12:17.641Z,21.84
2018-07-31T02:13:17.630Z,21.72
2018-07-31T02:14:17.619Z,21.79
2018-07-31T02:15:17.608Z,21.88
2018-07-31T02:16:17.597Z,21.86
2018-07-31T02:17:17.597Z,21.82
2018-07-31T02:18:17.573Z,21.79
2018-07-31T02:19:17.562Z,21.83
2018-07-31T02:20:17.551Z,21.86
2018-07-31T02:21:17.539Z,21.80
2018-07-31T02:22:17.528Z,21.79
2018-07-31T02:23:17.517Z,21.71
2018-07-31T02:24:17.505Z,21.68
2018-07-31T02:25:17.493Z,21.72
2018-07-31T02:26:17.480Z,21.74
2018-07-31T02:27:17.471Z,21.69
2018-07-31T02:28:17.563Z,21.61
2018-07-31T02:29:17.447Z,21.62
2018-07-31T02:30:17.435Z,21.59
2018-07-31T02:31:17.425Z,21.58
2018-07-31T02:32:17.413Z,21.58
2018-07-31T02:33:17.401Z,21.61
2018-07-31T02:34:17.392Z,21.64
2018-07-31T02:35:17.386Z,21.65
2018-07-31T02:36:17.370Z,21.59
2018-07-31T02:37:17.356Z,21.67
2018-07-31T02:38:17.345Z,21.64
2018-07-31T02:39:17.332Z,21.62
2018-07-31T02:40:17.323Z,21.64
2018-07-31T02:41:17.311Z,21.75
2018-07-31T02:42:17.311Z,21.71
2018-07-31T02:43:17.297Z,21.74
2018-07-31T02:44:17.277Z,21.64
2018-07-31T02:45:17.267Z,21.65
2018-07-31T02:46:17.254Z,21.59
2018-07-31T02:47:17.243Z,21.68
2018-07-31T02:48:17.231Z,21.59
2018-07-31T02:49:17.224Z,21.62
2018-07-31T02:50:17.207Z,21.62
2018-07-31T02:51:17.201Z,21.61
2018-07-31T02:52:17.185Z,21.62
2018-07-31T02:53:17.176Z,21.61
2018-07-31T02:54:17.161Z,21.64
2018-07-31T02:55:17.149Z,21.65
2018-07-31T02:56:17.140Z,21.54
2018-07-31T02:57:17.128Z,21.65
2018-07-31T02:58:17.144Z,21.61
2018-07-31T02:59:17.103Z,21.59
2018-07-31T03:00:17.093Z,21.54
2018-07-31T03:01:17.081Z,21.46
2018-07-31T03:02:17.071Z,21.43
2018-07-31T03:03:17.057Z,21.44
2018-07-31T03:04:17.048Z,21.42
2018-07-31T03:05:17.036Z,21.43
2018-07-31T03:06:17.048Z,21.37
2018-07-31T03:07:17.011Z,21.43
2018-07-31T03:08:17.066Z,21.28
2018-07-31T03:09:16.989Z,21.29
2018-07-31T03:10:16.975Z,21.27
2018-07-31T03:11:16.967Z,21.28
2018-07-31T03:12:16.957Z,21.22
2018-07-31T03:13:16.943Z,21.19
2018-07-31T03:14:16.930Z,21.19
2018-07-31T03:15:16.918Z,21.19
2018-07-31T03:16:16.910Z,21.19
2018-07-31T03:17:16.893Z,21.19
2018-07-31T03:18:16.885Z,21.21
2018-07-31T03:19:16.869Z,21.21
2018-07-31T03:20:16.860Z,21.28
2018-07-31T03:21:16.850Z,21.31
2018-07-31T03:22:16.840Z,21.34
2018-07-31T03:23:16.823Z,21.28
2018-07-31T03:24:16.812Z,21.27
2018-07-31T03:25:16.804Z,21.32
2018-07-31T03:26:16.793Z,21.34
2018-07-31T03:27:16.778Z,21.38
2018-07-31T03:28:16.775Z,21.40
2018-07-31T03:29:16.752Z,21.42
2018-07-31T03:30:16.743Z,21.38
2018-07-31T03:31:16.734Z,21.35
2018-07-31T03:32:16.725Z,21.46
2018-07-31T03:33:16.706Z,21.35
2018-07-31T03:34:16.695Z,21.28
2018-07-31T03:35:16.684Z,21.38
2018-07-31T03:36:16.673Z,21.34
2018-07-31T03:37:16.660Z,21.37
2018-07-31T03:38:16.654Z,21.34
2018-07-31T03:39:16.635Z,21.43
2018-07-31T03:40:16.624Z,21.31
2018-07-31T03:41:16.612Z,21.32
2018-07-31T03:42:16.600Z,21.22
2018-07-31T03:43:16.589Z,21.25
2018-07-31T03:44:16.578Z,21.22
2018-07-31T03:45:16.565Z,21.21
2018-07-31T03:46:16.552Z,21.28
2018-07-31T03:47:16.541Z,21.31
2018-07-31T03:48:16.531Z,21.27
2018-07-31T03:49:16.518Z,21.34
2018-07-31T03:50:16.508Z,21.29
2018-07-31T03:51:16.496Z,21.31
2018-07-31T03:52:16.482Z,21.32
2018-07-31T03:53:16.470Z,21.24
2018-07-31T03:54:16.462Z,21.28
2018-07-31T03:55:16.446Z,21.34
2018-07-31T03:56:16.465Z,21.28
2018-07-31T03:57:16.421Z,21.29
2018-07-31T03:58:16.410Z,21.25
2018-07-31T03:59:16.403Z,21.24
2018-07-31T04:00:16.389Z,21.25
2018-07-31T04:01:16.379Z,21.22
2018-07-31T04:02:16.365Z,21.09
2018-07-31T04:03:16.351Z,21.19
2018-07-31T04:04:16.339Z,21.14
2018-07-31T04:05:16.326Z,21.07
2018-07-31T04:06:16.315Z,21.12
2018-07-31T04:07:16.308Z,21.13
2018-07-31T04:08:16.292Z,21.12
2018-07-31T04:09:16.279Z,21.21
2018-07-31T04:10:16.269Z,21.17
2018-07-31T04:11:16.256Z,21.21
2018-07-31T04:12:16.245Z,21.24
2018-07-31T04:13:16.232Z,21.28
2018-07-31T04:14:16.219Z,21.19
2018-07-31T04:15:16.209Z,21.13
2018-07-31T04:16:16.208Z,21.19
2018-07-31T04:17:16.230Z,21.14
2018-07-31T04:18:16.172Z,21.16
2018-07-31T04:19:16.165Z,21.07
2018-07-31T04:20:16.202Z,21.07
2018-07-31T04:21:16.141Z,21.19
2018-07-31T04:22:16.132Z,21.14
2018-07-31T04:23:16.113Z,21.16
2018-07-31T04:24:16.103Z,21.16
2018-07-31T04:25:16.098Z,21.14
2018-07-31T04:26:16.079Z,21.14
2018-07-31T04:27:16.067Z,21.22
2018-07-31T04:28:16.060Z,21.29
2018-07-31T04:29:16.041Z,21.25
2018-07-31T04:30:16.033Z,21.40
2018-07-31T04:31:16.019Z,21.38
2018-07-31T04:32:16.008Z,21.37
2018-07-31T04:33:15.995Z,21.52
2018-07-31T04:34:15.982Z,21.46
2018-07-31T04:35:15.971Z,21.46
2018-07-31T04:36:15.970Z,21.50
2018-07-31T04:37:15.945Z,21.53
2018-07-31T04:38:15.937Z,21.46
2018-07-31T04:39:15.923Z,21.59
2018-07-31T04:40:15.912Z,21.68
2018-07-31T04:41:15.915Z,21.62
2018-07-31T04:42:15.951Z,21.68
2018-07-31T04:43:15.878Z,21.67
2018-07-31T04:44:15.864Z,21.68
2018-07-31T04:45:15.856Z,21.71
2018-07-31T04:46:15.844Z,21.79
2018-07-31T04:47:15.827Z,21.86
2018-07-31T04:48:15.816Z,21.82
2018-07-31T04:49:15.803Z,21.82
2018-07-31T04:50:15.808Z,21.79
2018-07-31T04:51:15.782Z,21.75
2018-07-31T04:52:15.768Z,21.82
2018-07-31T04:53:15.756Z,21.80
2018-07-31T04:54:15.753Z,21.83
2018-07-31T04:55:15.733Z,21.71
2018-07-31T04:56:15.728Z,21.92
2018-07-31T04:57:15.709Z,21.91
2018-07-31T04:58:15.698Z,21.92
2018-07-31T04:59:15.687Z,21.83
2018-07-31T05:00:15.677Z,21.91
2018-07-31T05:01:15.663Z,21.90
2018-07-31T05:02:15.657Z,21.84
2018-07-31T05:03:15.638Z,21.84
2018-07-31T05:04:15.646Z,21.88
2018-07-31T05:05:15.614Z,21.90
2018-07-31T05:06:15.605Z,21.91
2018-07-31T05:07:15.591Z,21.94
2018-07-31T05:08:15.581Z,21.94
2018-07-31T05:09:15.568Z,21.94
2018-07-31T05:10:15.561Z,22.05
2018-07-31T05:11:15.546Z,22.07
2018-07-31T05:12:15.534Z,22.09
2018-07-31T05:13:15.522Z,22.02
2018-07-31T05:14:15.517Z,22.12
2018-07-31T05:15:15.501Z,22.02
2018-07-31T05:16:15.485Z,22.17
2018-07-31T05:17:15.475Z,22.21
2018-07-31T05:18:15.470Z,22.21
2018-07-31T05:19:15.496Z,22.25
2018-07-31T05:20:15.440Z,22.21
2018-07-31T05:21:15.431Z,22.22
2018-07-31T05:22:15.418Z,22.25
2018-07-31T05:23:15.408Z,22.35
2018-07-31T05:24:15.395Z,22.30
2018-07-31T05:25:15.399Z,22.31
2018-07-31T05:26:15.371Z,22.39
2018-07-31T05:27:15.358Z,22.45
2018-07-31T05:28:15.354Z,22.43
2018-07-31T05:29:15.336Z,22.43
2018-07-31T05:30:15.325Z,22.60
2018-07-31T05:31:15.313Z,22.58
2018-07-31T05:32:15.303Z,22.62
2018-07-31T05:33:15.289Z,22.61
2018-07-31T05:34:15.283Z,22.65
2018-07-31T05:35:15.268Z,22.68
2018-07-31T05:36:15.255Z,22.76
2018-07-31T05:37:15.245Z,22.76
2018-07-31T05:38:15.233Z,22.80
2018-07-31T05:39:15.222Z,22.76
2018-07-31T05:40:15.211Z,22.83
2018-07-31T05:41:15.198Z,22.95
2018-07-31T05:42:15.187Z,23.02
2018-07-31T05:43:15.175Z,23.05
2018-07-31T05:44:15.164Z,23.09
2018-07-31T05:45:15.155Z,23.12
2018-07-31T05:46:15.195Z,23.23
2018-07-31T05:47:15.131Z,23.19
2018-07-31T05:48:15.119Z,23.23
2018-07-31T05:49:15.108Z,23.31
2018-07-31T05:50:15.100Z,23.32
2018-07-31T05:51:15.086Z,23.35
2018-07-31T05:52:15.074Z,23.46
2018-07-31T05:53:15.062Z,23.43
2018-07-31T05:54:15.053Z,23.48
2018-07-31T05:55:15.040Z,23.43
2018-07-31T05:56:15.037Z,23.54
2018-07-31T05:57:15.022Z,23.57
2018-07-31T05:58:15.005Z,23.60
2018-07-31T05:59:14.995Z,23.65
2018-07-31T06:00:14.989Z,23.75
2018-07-31T06:01:14.973Z,23.75
2018-07-31T06:02:14.963Z,23.80
2018-07-31T06:03:14.954Z,23.87
2018-07-31T06:04:14.940Z,23.94
2018-07-31T06:05:14.930Z,23.91
2018-07-31T06:06:14.919Z,24.00
2018-07-31T06:07:14.905Z,24.02
2018-07-31T06:08:14.895Z,24.09
2018-07-31T06:09:14.885Z,24.06
2018-07-31T06:10:14.873Z,24.12
2018-07-31T06:11:14.899Z,24.20
2018-07-31T06:12:14.851Z,24.24
2018-07-31T06:13:14.842Z,24.31
2018-07-31T06:14:14.829Z,24.34
2018-07-31T06:15:14.835Z,24.35
2018-07-31T06:16:14.808Z,24.46
2018-07-31T06:17:14.797Z,24.49
2018-07-31T06:18:14.792Z,24.53
2018-07-31T06:19:14.777Z,24.57
2018-07-31T06:20:14.769Z,24.64
2018-07-31T06:21:14.762Z,24.64
2018-07-31T06:22:14.743Z,24.64
2018-07-31T06:23:14.736Z,24.78
2018-07-31T06:24:14.726Z,24.77
2018-07-31T06:25:14.715Z,24.87
2018-07-31T06:26:14.704Z,24.91
2018-07-31T06:27:14.690Z,24.88
2018-07-31T06:28:14.707Z,25.02
2018-07-31T06:29:14.679Z,25.05
2018-07-31T06:30:14.660Z,25.09
2018-07-31T06:31:14.652Z,25.25
2018-07-31T06:32:14.646Z,25.25
2018-07-31T06:33:14.628Z,25.33
2018-07-31T06:34:14.621Z,25.39
2018-07-31T06:35:14.606Z,25.42
2018-07-31T06:36:14.599Z,25.54
2018-07-31T06:37:14.590Z,25.58
2018-07-31T06:38:14.587Z,25.72
2018-07-31T06:39:14.571Z,25.69
2018-07-31T06:40:14.556Z,25.87
2018-07-31T06:41:14.545Z,25.91
2018-07-31T06:42:14.536Z,25.91
2018-07-31T06:43:14.524Z,26.01
2018-07-31T06:44:14.514Z,26.02
2018-07-31T06:45:14.503Z,26.13
2018-07-31T06:46:14.492Z,26.23
2018-07-31T06:47:14.484Z,26.28
2018-07-31T06:48:14.473Z,26.39
2018-07-31T06:49:14.464Z,26.35
2018-07-31T06:50:14.464Z,26.57
2018-07-31T06:51:14.442Z,26.60
2018-07-31T06:52:14.433Z,26.73
2018-07-31T06:53:14.422Z,26.80
2018-07-31T06:54:14.417Z,26.85
2018-07-31T06:55:14.408Z,26.88
2018-07-31T06:56:14.396Z,26.89
2018-07-31T06:57:14.385Z,26.92
2018-07-31T06:58:14.383Z,27.03
2018-07-31T06:59:14.365Z,27.13
2018-07-31T07:00:14.355Z,27.18
2018-07-31T07:01:14.346Z,27.24
2018-07-31T07:02:14.360Z,27.34
2018-07-31T07:03:14.327Z,27.44
2018-07-31T07:04:14.318Z,27.43
2018-07-31T07:05:14.308Z,27.57
2018-07-31T07:06:14.300Z,27.62
2018-07-31T07:07:14.289Z,27.72
2018-07-31T07:08:14.282Z,27.77
2018-07-31T07:09:14.328Z,27.90
2018-07-31T07:10:14.264Z,27.97
2018-07-31T07:11:14.255Z,28.03
2018-07-31T07:12:14.245Z,28.09
2018-07-31T07:13:14.234Z,28.18
2018-07-31T07:14:14.239Z,28.17
2018-07-31T07:15:14.220Z,28.30
2018-07-31T07:16:14.213Z,28.30
2018-07-31T07:17:14.199Z,28.36
2018-07-31T07:18:14.191Z,28.46
2018-07-31T07:19:14.186Z,28.58
2018-07-31T07:20:14.181Z,28.73
2018-07-31T07:21:14.164Z,28.76
2018-07-31T07:22:14.156Z,28.86
2018-07-31T07:23:14.146Z,28.90
2018-07-31T07:24:14.138Z,29.00
2018-07-31T07:25:14.130Z,29.09
2018-07-31T07:26:14.121Z,29.30
2018-07-31T07:27:14.115Z,29.30
2018-07-31T07:28:14.108Z,29.43
2018-07-31T07:29:14.100Z,29.61
2018-07-31T07:30:14.088Z,29.71
2018-07-31T07:31:14.079Z,29.86
2018-07-31T07:32:14.071Z,29.92
2018-07-31T07:33:14.065Z,30.01
2018-07-31T07:34:14.056Z,30.01
2018-07-31T07:35:14.048Z,30.10
2018-07-31T07:36:14.041Z,30.24
2018-07-31T07:37:14.029Z,30.35
2018-07-31T07:38:14.022Z,30.61
2018-07-31T07:39:14.014Z,30.82
2018-07-31T07:40:14.054Z,31.19
2018-07-31T07:41:14.001Z,31.35
2018-07-31T07:42:13.992Z,31.75
2018-07-31T07:43:13.986Z,32.23
2018-07-31T07:44:13.976Z,32.70
2018-07-31T07:45:13.972Z,33.18
2018-07-31T07:46:13.964Z,33.51
2018-07-31T07:47:13.955Z,34.05
2018-07-31T07:48:13.947Z,34.62
2018-07-31T07:49:13.944Z,34.97
2018-07-31T07:50:13.937Z,35.29
2018-07-31T07:51:13.925Z,35.71
2018-07-31T07:52:13.917Z,36.07
2018-07-31T07:53:13.909Z,35.99
2018-07-31T07:54:14.079Z,36.23
2018-07-31T07:55:13.900Z,36.12
2018-07-31T07:56:13.891Z,36.19
2018-07-31T07:57:13.913Z,36.23
2018-07-31T07:58:13.878Z,36.38
2018-07-31T07:59:13.874Z,36.47
2018-07-31T08:00:13.887Z,36.64
2018-07-31T08:01:13.861Z,36.85
2018-07-31T08:02:13.861Z,37.20
2018-07-31T08:03:13.901Z,37.46
2018-07-31T08:04:13.871Z,37.40
2018-07-31T08:05:13.853Z,37.15
2018-07-31T08:06:13.843Z,37.39
2018-07-31T08:07:13.834Z,37.64
2018-07-31T08:08:13.834Z,37.97
2018-07-31T08:09:13.829Z,37.89
2018-07-31T08:10:13.822Z,37.91
2018-07-31T08:11:13.822Z,37.96
2018-07-31T08:12:13.819Z,38.26
2018-07-31T08:13:13.816Z,38.26
2018-07-31T08:14:13.815Z,38.63
2018-07-31T08:15:13.804Z,39.01
2018-07-31T08:16:13.802Z,39.59
2018-07-31T08:17:13.800Z,39.78
2018-07-31T08:18:13.805Z,39.55
2018-07-31T08:19:13.794Z,39.25
2018-07-31T08:20:13.825Z,39.35
2018-07-31T08:21:13.788Z,39.55
2018-07-31T08:22:13.785Z,39.69
2018-07-31T08:23:13.784Z,40.10
2018-07-31T08:24:13.782Z,39.94
2018-07-31T08:25:13.780Z,40.35
2018-07-31T08:26:13.778Z,40.32
2018-07-31T08:27:13.774Z,40.38
2018-07-31T08:28:13.780Z,40.88
2018-07-31T08:29:13.771Z,40.95
2018-07-31T08:30:13.774Z,40.82
2018-07-31T08:31:13.795Z,40.77
2018-07-31T08:32:13.770Z,40.60
2018-07-31T08:33:13.777Z,40.72
2018-07-31T08:34:13.762Z,40.72
2018-07-31T08:35:13.770Z,40.88
2018-07-31T08:36:13.764Z,40.94
2018-07-31T08:37:13.756Z,41.30
2018-07-31T08:38:13.758Z,41.67
2018-07-31T08:39:13.760Z,41.76
2018-07-31T08:40:13.755Z,41.96
2018-07-31T08:41:13.765Z,41.98
2018-07-31T08:42:13.758Z,41.60
2018-07-31T08:43:13.752Z,41.01
2018-07-31T08:44:13.754Z,40.82
2018-07-31T08:45:13.751Z,40.76
2018-07-31T08:46:13.752Z,40.51
2018-07-31T08:47:13.748Z,40.76
2018-07-31T08:48:13.752Z,40.98
2018-07-31T08:49:13.747Z,41.14
2018-07-31T08:50:13.748Z,40.99
2018-07-31T08:51:13.777Z,41.01
2018-07-31T08:52:13.746Z,40.98
2018-07-31T08:53:13.746Z,40.98
2018-07-31T08:54:13.746Z,40.88
2018-07-31T08:55:13.750Z,41.35
2018-07-31T08:56:13.744Z,41.83
2018-07-31T08:57:13.743Z,42.16
2018-07-31T08:58:13.742Z,42.59
2018-07-31T08:59:13.741Z,43.18
2018-07-31T09:00:13.753Z,43.33
2018-07-31T09:01:13.741Z,42.59
2018-07-31T09:02:13.792Z,42.18
2018-07-31T09:03:13.744Z,42.66
2018-07-31T09:04:13.750Z,42.70
2018-07-31T09:05:13.742Z,42.47
2018-07-31T09:06:13.741Z,42.30
2018-07-31T09:07:13.744Z,42.20
2018-07-31T09:08:13.800Z,41.89
2018-07-31T09:09:13.742Z,41.89
2018-07-31T09:10:13.743Z,41.98
2018-07-31T09:11:13.751Z,42.13
2018-07-31T09:12:13.745Z,42.12
2018-07-31T09:13:13.743Z,42.35
2018-07-31T09:14:13.745Z,42.24
2018-07-31T09:15:13.745Z,42.09
2018-07-31T09:16:13.748Z,41.89
2018-07-31T09:17:13.746Z,41.58
2018-07-31T09:18:13.745Z,41.48
2018-07-31T09:19:13.749Z,41.73
2018-07-31T09:20:13.746Z,41.60
2018-07-31T09:21:13.749Z,41.45
2018-07-31T09:22:13.752Z,41.55
2018-07-31T09:23:13.750Z,41.52
2018-07-31T09:24:13.753Z,41.70
2018-07-31T09:25:13.750Z,41.54
2018-07-31T09:26:13.759Z,41.67
2018-07-31T09:27:13.751Z,41.94
2018-07-31T09:28:13.751Z,42.12
2018-07-31T09:29:13.756Z,42.05
2018-07-31T09:30:13.767Z,42.30
2018-07-31T09:31:13.758Z,42.78
2018-07-31T09:32:13.760Z,42.81
2018-07-31T09:33:13.755Z,42.62
2018-07-31T09:34:13.757Z,42.45
2018-07-31T09:35:13.762Z,42.65
2018-07-31T09:36:13.760Z,42.86
2018-07-31T09:37:13.765Z,42.49
2018-07-31T09:38:13.763Z,42.57
2018-07-31T09:39:13.767Z,42.40
2018-07-31T09:40:13.765Z,42.11
2018-07-31T09:41:13.767Z,42.05
2018-07-31T09:42:13.768Z,42.30
2018-07-31T09:43:13.777Z,42.09
2018-07-31T09:44:13.773Z,41.90
2018-07-31T09:45:13.772Z,41.94
2018-07-31T09:46:13.779Z,42.17
2018-07-31T09:47:13.775Z,42.20
2018-07-31T09:48:13.776Z,42.50
2018-07-31T09:49:13.777Z,42.42
2018-07-31T09:50:13.783Z,42.71
2018-07-31T09:51:13.781Z,42.86
2018-07-31T09:52:13.789Z,42.83
2018-07-31T09:53:13.784Z,42.59
2018-07-31T09:54:13.788Z,42.68
2018-07-31T09:55:13.789Z,42.84
2018-07-31T09:56:13.792Z,43.07
2018-07-31T09:57:13.844Z,43.00
2018-07-31T09:58:13.793Z,42.93
2018-07-31T09:59:13.862Z,42.96
2018-07-31T10:00:13.800Z,43.03
2018-07-31T10:01:13.800Z,43.28
2018-07-31T10:02:13.805Z,43.19
2018-07-31T10:03:13.804Z,43.12
2018-07-31T10:04:13.805Z,42.96
2018-07-31T10:05:13.813Z,42.54
2018-07-31T10:06:13.812Z,42.27
2018-07-31T10:07:13.817Z,42.21
2018-07-31T10:08:13.827Z,42.40
2018-07-31T10:09:13.822Z,42.78
2018-07-31T10:10:13.824Z,42.83
2018-07-31T10:11:13.822Z,42.78
2018-07-31T10:12:13.854Z,42.71
2018-07-31T10:13:13.828Z,43.11
2018-07-31T10:14:13.830Z,43.35
2018-07-31T10:15:13.832Z,43.53
2018-07-31T10:16:13.845Z,43.79
2018-07-31T10:17:13.837Z,43.83
2018-07-31T10:18:13.860Z,43.86
2018-07-31T10:19:13.842Z,43.72
2018-07-31T10:20:13.846Z,43.65
2018-07-31T10:21:13.853Z,43.97
2018-07-31T10:22:13.852Z,44.40
2018-07-31T10:23:13.856Z,44.55
2018-07-31T10:24:13.905Z,44.51
2018-07-31T10:25:13.860Z,44.46
2018-07-31T10:26:13.864Z,44.53
2018-07-31T10:27:13.867Z,44.82
2018-07-31T10:28:13.873Z,44.97
2018-07-31T10:29:13.872Z,45.27
2018-07-31T10:30:13.887Z,45.48
2018-07-31T10:31:13.880Z,45.32
2018-07-31T10:32:13.883Z,45.53
2018-07-31T10:33:13.886Z,45.43
2018-07-31T10:34:13.892Z,45.32
2018-07-31T10:35:13.901Z,45.20
2018-07-31T10:36:13.897Z,45.38
2018-07-31T10:37:13.904Z,45.36
2018-07-31T10:38:13.905Z,44.97
2018-07-31T10:39:13.910Z,44.79
2018-07-31T10:40:13.910Z,44.92
2018-07-31T10:41:13.914Z,45.20
2018-07-31T10:42:13.926Z,45.45
2018-07-31T10:43:13.928Z,45.42
2018-07-31T10:44:13.927Z,45.19
2018-07-31T10:45:13.928Z,45.36
2018-07-31T10:46:13.933Z,45.42
2018-07-31T10:47:13.940Z,45.39
2018-07-31T10:48:13.945Z,45.60
2018-07-31T10:49:13.948Z,45.69
2018-07-31T10:50:13.949Z,45.73
2018-07-31T10:51:14.056Z,45.26
2018-07-31T10:52:13.955Z,45.04
2018-07-31T10:53:13.961Z,44.79
2018-07-31T10:54:13.965Z,44.90
2018-07-31T10:55:13.970Z,45.07
2018-07-31T10:56:13.978Z,45.21
2018-07-31T10:57:13.977Z,45.66
2018-07-31T10:58:14.060Z,45.88
2018-07-31T10:59:13.984Z,46.47
2018-07-31T11:00:14.016Z,46.84
2018-07-31T11:01:13.995Z,47.06
2018-07-31T11:02:13.999Z,47.17
2018-07-31T11:03:14.053Z,47.05
2018-07-31T11:04:14.095Z,47.22
2018-07-31T11:05:14.012Z,47.51
2018-07-31T11:06:14.047Z,47.22
2018-07-31T11:07:14.027Z,47.14
2018-07-31T11:08:14.028Z,46.93
2018-07-31T11:09:14.033Z,46.69
2018-07-31T11:10:14.035Z,47.17
2018-07-31T11:11:14.043Z,47.15
2018-07-31T11:12:14.046Z,47.17
2018-07-31T11:13:14.097Z,47.33
2018-07-31T11:14:14.063Z,47.53
2018-07-31T11:15:14.064Z,47.41
2018-07-31T11:16:14.067Z,47.34
2018-07-31T11:17:14.082Z,47.22
2018-07-31T11:18:14.075Z,46.83
2018-07-31T11:19:14.081Z,46.74
2018-07-31T11:20:14.089Z,46.64
2018-07-31T11:21:14.114Z,46.76
2018-07-31T11:22:14.099Z,47.18
2018-07-31T11:23:14.104Z,47.25
2018-07-31T11:24:14.109Z,47.25
2018-07-31T11:25:14.114Z,47.33
2018-07-31T11:26:14.119Z,47.43
2018-07-31T11:27:14.129Z,47.28
2018-07-31T11:28:14.132Z,47.36
2018-07-31T11:29:14.137Z,46.93
2018-07-31T11:30:14.144Z,46.64
2018-07-31T11:31:14.152Z,46.42
2018-07-31T11:32:14.154Z,46.39
2018-07-31T11:33:14.161Z,46.47
2018-07-31T11:34:14.167Z,46.66
2018-07-31T11:35:14.175Z,47.05
2018-07-31T11:36:14.179Z,47.37
2018-07-31T11:37:14.193Z,47.15
2018-07-31T11:38:14.193Z,46.99
2018-07-31T11:39:14.196Z,46.62
2018-07-31T11:40:14.202Z,46.61
2018-07-31T11:41:14.208Z,46.76
2018-07-31T11:42:14.214Z,47.03
2018-07-31T11:43:14.227Z,47.38
2018-07-31T11:44:14.227Z,47.19
2018-07-31T11:45:14.231Z,47.47
2018-07-31T11:46:14.239Z,47.60
2018-07-31T11:47:14.259Z,48.04
2018-07-31T11:48:14.251Z,47.78
2018-07-31T11:49:14.263Z,47.36
2018-07-31T11:50:14.314Z,47.41
2018-07-31T11:51:14.269Z,47.61
2018-07-31T11:52:14.276Z,47.29
2018-07-31T11:53:14.282Z,47.58
2018-07-31T11:54:14.293Z,47.95
2018-07-31T11:55:14.295Z,48.18
2018-07-31T11:56:14.301Z,48.30
2018-07-31T11:57:14.306Z,48.54
2018-07-31T11:58:14.312Z,48.78
2018-07-31T11:59:14.320Z,48.54
2018-07-31T12:00:14.328Z,48.25
2018-07-31T12:01:14.331Z,47.80
2018-07-31T12:02:14.338Z,47.57
2018-07-31T12:03:14.347Z,47.50
2018-07-31T12:04:14.366Z,47.82
2018-07-31T12:05:14.355Z,47.41
2018-07-31T12:06:14.361Z,47.43
2018-07-31T12:07:14.367Z,47.64
2018-07-31T12:08:14.371Z,47.58
2018-07-31T12:09:14.376Z,47.67
2018-07-31T12:10:14.385Z,47.56
2018-07-31T12:11:14.387Z,47.50
2018-07-31T12:12:14.391Z,47.19
2018-07-31T12:13:14.397Z,47.18
2018-07-31T12:14:14.401Z,47.21
2018-07-31T12:15:14.404Z,47.00
2018-07-31T12:16:14.409Z,46.78
2018-07-31T12:17:14.416Z,46.88
2018-07-31T12:18:14.420Z,47.06
2018-07-31T12:19:14.422Z,47.07
2018-07-31T12:20:14.428Z,47.06
2018-07-31T12:21:14.429Z,47.09
2018-07-31T12:22:14.434Z,46.87
2018-07-31T12:23:14.441Z,46.42
2018-07-31T12:24:14.450Z,46.18
2018-07-31T12:25:14.443Z,45.80
2018-07-31T12:26:14.446Z,45.79
2018-07-31T12:27:14.451Z,45.81
2018-07-31T12:28:14.457Z,45.85
2018-07-31T12:29:14.455Z,45.48
2018-07-31T12:30:14.459Z,45.39
2018-07-31T12:31:14.462Z,45.14
2018-07-31T12:32:14.469Z,45.00
2018-07-31T12:33:14.541Z,44.94
2018-07-31T12:34:14.469Z,44.78
2018-07-31T12:35:14.475Z,44.71
2018-07-31T12:36:14.472Z,44.53
2018-07-31T12:37:14.475Z,44.40
2018-07-31T12:38:14.529Z,44.26
2018-07-31T12:39:14.481Z,44.05
2018-07-31T12:40:14.483Z,44.00
2018-07-31T12:41:14.484Z,43.97
2018-07-31T12:42:14.491Z,43.94
2018-07-31T12:43:14.488Z,43.94
2018-07-31T12:44:14.491Z,43.91
2018-07-31T12:45:14.491Z,43.68
2018-07-31T12:46:14.496Z,43.72
2018-07-31T12:47:14.490Z,43.64
2018-07-31T12:48:14.494Z,43.53
2018-07-31T12:49:14.496Z,43.40
2018-07-31T12:50:14.580Z,43.52
2018-07-31T12:51:14.496Z,43.41
2018-07-31T12:52:14.498Z,43.23